Time;durP1;ratioP1;P1;durP2;ratioP2;P2;SDS_P1;SDS_P2;PMS_P1;PMS_P2;Temp;Humidity;BMP_temperature;BMP_pressure;BME280_temperature;BME280_humidity;BME280_pressure;Samples;Min_cycle;Max_cycle;Signal;HPM_P1;HPM_P2
2021/04/04 00:01:00;;;;;;;8.97;3.90;;;4.00;85.20;;;;;;5114516;28;20220;-65
2021/04/04 00:03:26;;;;;;;7.27;3.30;;;3.90;85.20;;;;;;5114782;28;20208;-64
2021/04/04 00:05:52;;;;;;;5.23;3.00;;;3.80;85.20;;;;;;5114582;28;20230;-65
2021/04/04 00:08:19;;;;;;;6.80;3.80;;;3.80;85.50;;;;;;5114596;28;20280;-64
2021/04/04 00:10:45;;;;;;;7.23;3.70;;;3.60;85.90;;;;;;5114619;28;20659;-63
2021/04/04 00:13:11;;;;;;;6.53;3.37;;;3.50;86.30;;;;;;5114582;28;20199;-63
2021/04/04 00:15:40;;;;;;;6.33;4.10;;;3.50;86.50;;;;;;5114647;28;20665;-64
2021/04/04 00:18:07;;;;;;;7.90;4.17;;;3.50;86.60;;;;;;5114542;28;20210;-65
2021/04/04 00:20:33;;;;;;;10.37;3.73;;;3.40;87.10;;;;;;5114496;28;20238;-63
2021/04/04 00:22:59;;;;;;;6.60;3.50;;;3.30;87.60;;;;;;5114594;28;20207;-64
2021/04/04 00:25:27;;;;;;;6.13;3.20;;;3.20;88.00;;;;;;5114554;28;20211;-63
2021/04/04 00:27:53;;;;;;;6.80;3.20;;;3.10;88.60;;;;;;5114537;28;20230;-65
2021/04/04 00:30:21;;;;;;;8.60;3.20;;;3.00;88.70;;;;;;5114872;28;20203;-65
2021/04/04 00:32:48;;;;;;;5.37;3.00;;;3.00;88.70;;;;;;5114546;28;20211;-63
2021/04/04 00:35:16;;;;;;;5.67;3.40;;;3.10;88.80;;;;;;5114348;28;20209;-62
2021/04/04 00:37:42;;;;;;;5.33;3.13;;;3.10;88.40;;;;;;5114393;28;20272;-63
2021/04/04 00:40:12;;;;;;;7.10;3.50;;;3.20;88.40;;;;;;5114423;28;20203;-64
2021/04/04 00:42:39;;;;;;;7.27;3.57;;;3.20;88.20;;;;;;5114174;28;20200;-63
2021/04/04 00:45:09;;;;;;;6.47;3.13;;;3.30;88.20;;;;;;5113728;28;20207;-63
2021/04/04 00:47:35;;;;;;;6.23;3.13;;;3.30;88.00;;;;;;5114012;28;20228;-63
2021/04/04 00:50:01;;;;;;;5.27;3.43;;;3.40;87.90;;;;;;5114335;28;20214;-66
2021/04/04 00:52:28;;;;;;;7.87;3.37;;;3.40;87.80;;;;;;5114096;28;20203;-66
2021/04/04 00:54:54;;;;;;;6.00;3.37;;;3.40;87.70;;;;;;5113943;28;20260;-64
2021/04/04 00:57:21;;;;;;;7.80;3.93;;;3.30;87.80;;;;;;5113457;28;20284;-64
2021/04/04 00:59:48;;;;;;;7.57;3.73;;;3.20;88.20;;;;;;5113501;28;20236;-64
2021/04/04 01:02:16;;;;;;;7.43;3.73;;;3.20;88.40;;;;;;5113292;28;20707;-63
2021/04/04 01:04:43;;;;;;;3.80;3.27;;;3.10;88.80;;;;;;5113224;28;20264;-64
2021/04/04 01:07:10;;;;;;;7.93;3.63;;;3.10;89.20;;;;;;5113442;28;20602;-65
2021/04/04 01:09:36;;;;;;;5.23;3.20;;;3.10;89.10;;;;;;5113579;28;20218;-64
2021/04/04 01:12:09;;;;;;;5.23;3.27;;;3.20;89.20;;;;;;5113453;28;20202;-64
2021/04/04 01:14:42;;;;;;;7.53;3.73;;;3.20;89.00;;;;;;5113140;28;20235;-63
2021/04/04 01:17:13;;;;;;;5.80;3.67;;;3.00;89.60;;;;;;5113360;28;20228;-62
2021/04/04 01:20:05;;;;;;;6.63;3.13;;;3.00;89.70;;;;;;5112810;28;20559;-65
2021/04/04 01:23:10;;;;;;;8.73;3.53;;;3.00;89.80;;;;;;5113096;28;20195;-65
2021/04/04 01:25:45;;;;;;;6.10;3.50;;;3.10;89.80;;;;;;5092041;28;20203;-63
2021/04/04 01:28:15;;;;;;;6.37;3.23;;;3.00;90.00;;;;;;5112953;28;20191;-63
2021/04/04 01:30:44;;;;;;;9.40;3.40;;;3.00;90.00;;;;;;5113203;28;20206;-65
2021/04/04 01:33:12;;;;;;;8.20;3.50;;;3.10;90.10;;;;;;5112714;28;20678;-65
2021/04/04 01:35:45;;;;;;;6.37;3.60;;;3.00;90.00;;;;;;5113013;28;20208;-64
2021/04/04 01:38:13;;;;;;;7.73;3.37;;;3.10;90.00;;;;;;5113154;28;20643;-63
2021/04/04 01:40:42;;;;;;;6.50;3.43;;;3.10;89.70;;;;;;5112558;28;20224;-64
2021/04/04 01:43:09;;;;;;;6.50;3.50;;;3.10;89.70;;;;;;5112558;28;20203;-63
2021/04/04 01:45:37;;;;;;;9.90;2.90;;;3.10;89.70;;;;;;5112585;28;20207;-64
2021/04/04 01:48:04;;;;;;;8.87;3.30;;;3.10;89.60;;;;;;5112517;28;20765;-63
2021/04/04 01:50:31;;;;;;;6.03;2.90;;;3.20;89.70;;;;;;5112818;28;20200;-64
2021/04/04 01:52:59;;;;;;;6.40;3.63;;;3.20;89.50;;;;;;5112902;28;20203;-64
2021/04/04 01:55:26;;;;;;;4.63;3.03;;;3.10;89.40;;;;;;5112296;28;20264;-64
2021/04/04 01:57:54;;;;;;;6.03;3.30;;;3.10;89.60;;;;;;5112372;28;20218;-66
2021/04/04 02:00:25;;;;;;;5.40;3.50;;;3.10;89.60;;;;;;5112469;28;20206;-68
2021/04/04 02:02:53;;;;;;;7.13;3.30;;;3.10;89.60;;;;;;5112833;28;20226;-65
2021/04/04 02:05:20;;;;;;;5.63;3.37;;;3.10;89.60;;;;;;5112223;28;20203;-64
2021/04/04 02:07:49;;;;;;;5.13;3.00;;;3.10;89.40;;;;;;5111932;28;20223;-64
2021/04/04 02:10:18;;;;;;;5.87;3.07;;;3.10;89.50;;;;;;5112315;28;20226;-66
2021/04/04 02:12:45;;;;;;;6.83;3.20;;;3.10;89.50;;;;;;5112050;28;20260;-63
2021/04/04 02:15:13;;;;;;;8.03;2.70;;;3.10;89.50;;;;;;5112537;28;20207;-66
2021/04/04 02:17:40;;;;;;;8.37;2.97;;;3.00;89.40;;;;;;5111965;28;20706;-64
2021/04/04 02:20:11;;;;;;;6.33;3.17;;;3.00;89.50;;;;;;5112329;28;20211;-63
2021/04/04 02:22:39;;;;;;;6.53;3.20;;;3.00;89.60;;;;;;5112283;28;20675;-66
2021/04/04 02:25:06;;;;;;;6.50;2.87;;;2.90;89.80;;;;;;5112050;28;20253;-66
2021/04/04 02:27:33;;;;;;;5.43;3.10;;;2.90;89.90;;;;;;5111645;28;20573;-63
2021/04/04 02:29:59;;;;;;;8.50;3.63;;;2.80;90.00;;;;;;5111964;28;20670;-62
2021/04/04 02:32:27;;;;;;;8.00;3.03;;;2.80;90.10;;;;;;5112228;28;20199;-65
2021/04/04 02:34:59;;;;;;;5.40;2.90;;;2.80;90.20;;;;;;5111828;28;20256;-64
2021/04/04 02:37:26;;;;;;;3.23;2.63;;;2.70;90.40;;;;;;5111517;28;20706;-64
2021/04/04 02:39:56;;;;;;;6.47;3.07;;;2.60;90.50;;;;;;5111450;28;20214;-63
2021/04/04 02:42:25;;;;;;;7.13;3.60;;;2.50;90.70;;;;;;5111591;28;20223;-64
2021/04/04 02:44:53;;;;;;;7.47;3.90;;;2.50;90.80;;;;;;5111670;28;20264;-63
2021/04/04 02:47:24;;;;;;;7.07;3.90;;;2.50;91.30;;;;;;5111416;28;20223;-63
2021/04/04 02:49:52;;;;;;;7.60;3.80;;;2.40;91.10;;;;;;5111510;28;20203;-62
2021/04/04 02:52:21;;;;;;;7.73;3.80;;;2.40;91.20;;;;;;5111407;28;20206;-62
2021/04/04 02:54:52;;;;;;;9.70;3.60;;;2.40;91.20;;;;;;5111399;28;20682;-65
2021/04/04 02:57:22;;;;;;;9.17;3.30;;;2.40;91.30;;;;;;5111753;28;20237;-62
2021/04/04 02:59:52;;;;;;;5.07;2.80;;;2.40;91.20;;;;;;5111357;28;20204;-65
2021/04/04 03:02:20;;;;;;;5.97;3.33;;;2.40;91.30;;;;;;5111515;28;20223;-63
2021/04/04 03:04:48;;;;;;;6.20;3.10;;;2.30;91.30;;;;;;5111704;28;20583;-63
2021/04/04 03:07:19;;;;;;;5.30;2.70;;;2.30;91.40;;;;;;5111538;28;20227;-63
2021/04/04 03:09:49;;;;;;;5.50;3.30;;;2.10;91.70;;;;;;5111602;28;20649;-64
2021/04/04 03:12:18;;;;;;;5.77;2.70;;;2.10;91.80;;;;;;5111769;28;20207;-62
2021/04/04 03:14:46;;;;;;;5.90;2.83;;;2.00;92.10;;;;;;5111471;28;20257;-67
2021/04/04 03:17:14;;;;;;;5.83;2.97;;;2.00;92.00;;;;;;5111727;28;20614;-65
2021/04/04 03:19:41;;;;;;;6.23;2.87;;;2.00;92.10;;;;;;5114493;28;20252;-65
2021/04/04 03:22:09;;;;;;;6.93;3.10;;;2.00;92.20;;;;;;5115668;28;20219;-61
2021/04/04 03:24:37;;;;;;;6.90;3.10;;;2.00;92.30;;;;;;5115625;28;20242;-62
2021/04/04 03:27:05;;;;;;;6.90;3.10;;;1.90;92.30;;;;;;5115648;28;20236;-63
2021/04/04 03:29:34;;;;;;;5.87;2.90;;;1.90;92.40;;;;;;5115253;28;20206;-63
2021/04/04 03:32:01;;;;;;;5.27;3.27;;;1.90;92.40;;;;;;5115083;28;20204;-63
2021/04/04 03:34:28;;;;;;;4.87;3.13;;;1.90;92.90;;;;;;5115262;28;20203;-63
2021/04/04 03:36:55;;;;;;;8.30;3.43;;;1.90;92.60;;;;;;5115306;28;20231;-63
2021/04/04 03:39:22;;;;;;;6.03;3.73;;;1.90;92.70;;;;;;5114941;28;20200;-64
2021/04/04 03:41:49;;;;;;;4.07;2.80;;;1.80;92.70;;;;;;5114763;28;20215;-63
2021/04/04 03:44:18;;;;;;;5.43;3.20;;;1.80;92.70;;;;;;5115451;28;20268;-65
2021/04/04 03:46:47;;;;;;;5.17;3.27;;;1.80;92.70;;;;;;5114772;28;20726;-64
2021/04/04 03:49:14;;;;;;;7.47;3.00;;;1.80;92.80;;;;;;5115070;28;20207;-64
2021/04/04 03:51:40;;;;;;;6.83;3.37;;;1.90;92.90;;;;;;5115001;28;20732;-63
2021/04/04 03:54:11;;;;;;;7.70;3.50;;;1.80;93.10;;;;;;5116060;28;20577;-65
2021/04/04 03:56:42;;;;;;;4.40;2.90;;;1.70;93.10;;;;;;5116099;28;20615;-63
2021/04/04 03:59:10;;;;;;;6.43;3.90;;;1.70;93.10;;;;;;5114453;28;20219;-66
2021/04/04 04:01:40;;;;;;;11.40;3.83;;;1.80;93.00;;;;;;5114423;28;20559;-64
2021/04/04 04:04:10;;;;;;;7.13;3.93;;;1.80;92.90;;;;;;5114395;28;20200;-65
2021/04/04 04:06:39;;;;;;;10.07;4.07;;;1.80;92.80;;;;;;5114117;28;20258;-67
2021/04/04 04:09:07;;;;;;;6.03;3.20;;;1.90;92.80;;;;;;5114155;28;20208;-63
2021/04/04 04:11:36;;;;;;;6.57;3.50;;;1.80;92.80;;;;;;5113939;28;20203;-64
2021/04/04 04:14:04;;;;;;;6.00;3.60;;;1.80;92.90;;;;;;5114140;28;20724;-63
2021/04/04 04:16:32;;;;;;;5.17;3.07;;;1.70;92.90;;;;;;5114120;28;20224;-65
2021/04/04 04:19:01;;;;;;;6.00;3.20;;;1.70;93.00;;;;;;5114257;28;20256;-64
2021/04/04 04:21:29;;;;;;;5.57;3.00;;;1.70;93.10;;;;;;5114012;28;20603;-63
2021/04/04 04:23:56;;;;;;;9.40;3.80;;;1.60;93.20;;;;;;5113870;28;20207;-67
2021/04/04 04:26:23;;;;;;;7.00;3.57;;;1.70;93.30;;;;;;5113864;28;20224;-64
2021/04/04 04:28:50;;;;;;;5.23;3.10;;;1.70;93.30;;;;;;5113717;28;20207;-67
2021/04/04 04:31:20;;;;;;;5.43;3.33;;;1.70;93.20;;;;;;5114280;28;20204;-64
2021/04/04 04:33:49;;;;;;;8.00;3.17;;;1.70;93.20;;;;;;5114656;28;20276;-64
2021/04/04 04:36:17;;;;;;;7.30;3.33;;;1.70;93.20;;;;;;5114455;28;20714;-63
2021/04/04 04:38:46;;;;;;;9.67;3.30;;;1.70;93.20;;;;;;5115606;28;20290;-63
2021/04/04 04:41:14;;;;;;;8.17;3.67;;;1.70;93.40;;;;;;5115540;28;20703;-64
2021/04/04 04:43:44;;;;;;;9.13;3.67;;;1.60;93.50;;;;;;5114754;28;20600;-63
2021/04/04 04:46:13;;;;;;;6.93;3.13;;;1.60;93.60;;;;;;5114400;28;20223;-62
2021/04/04 04:48:39;;;;;;;6.70;3.50;;;1.60;93.60;;;;;;5114805;28;20203;-64
2021/04/04 04:51:06;;;;;;;10.40;5.83;;;1.60;93.70;;;;;;5115005;28;20268;-62
2021/04/04 04:53:33;;;;;;;8.57;4.70;;;1.60;93.80;;;;;;5115483;28;20244;-64
2021/04/04 04:56:02;;;;;;;9.67;4.00;;;1.50;93.90;;;;;;5114991;28;21229;-63
2021/04/04 04:58:30;;;;;;;9.97;3.30;;;1.50;94.00;;;;;;5114976;28;20670;-63
2021/04/04 05:00:58;;;;;;;6.13;3.37;;;1.50;94.00;;;;;;5114783;28;20311;-65
2021/04/04 05:03:25;;;;;;;7.43;3.80;;;1.50;94.10;;;;;;5115304;28;20208;-63
2021/04/04 05:05:52;;;;;;;6.50;3.80;;;1.50;94.10;;;;;;5115278;28;20302;-64
2021/04/04 05:08:19;;;;;;;20.40;13.23;;;1.60;94.10;;;;;;5114585;28;20216;-63
2021/04/04 05:10:47;;;;;;;10.17;6.40;;;1.60;94.00;;;;;;5114868;28;20251;-64
2021/04/04 05:13:15;;;;;;;10.00;6.73;;;1.70;94.00;;;;;;5114581;28;20676;-63
2021/04/04 05:15:45;;;;;;;9.63;4.30;;;1.70;94.00;;;;;;5113563;28;20199;-64
2021/04/04 05:18:11;;;;;;;9.87;3.93;;;1.60;94.00;;;;;;5113648;28;20188;-65
2021/04/04 05:20:38;;;;;;;9.50;4.37;;;1.60;94.20;;;;;;5113506;28;20667;-64
2021/04/04 05:23:05;;;;;;;8.90;5.60;;;1.70;94.20;;;;;;5113393;28;20280;-62
2021/04/04 05:25:32;;;;;;;6.10;3.67;;;1.80;94.20;;;;;;5113306;28;20207;-63
2021/04/04 05:27:59;;;;;;;7.83;4.70;;;1.90;94.10;;;;;;5113621;28;20203;-66
2021/04/04 05:30:26;;;;;;;8.23;4.30;;;1.90;93.90;;;;;;5113356;28;20626;-63
2021/04/04 05:32:53;;;;;;;8.03;4.27;;;2.00;94.00;;;;;;5113690;28;20199;-65
2021/04/04 05:35:22;;;;;;;10.40;6.10;;;2.10;93.90;;;;;;5113991;28;20239;-63
2021/04/04 05:37:49;;;;;;;14.83;7.20;;;2.10;93.80;;;;;;5113132;28;20227;-66
2021/04/04 05:40:18;;;;;;;5.77;4.03;;;2.20;93.80;;;;;;5113464;28;20214;-62
2021/04/04 05:42:52;;;;;;;10.60;4.30;;;2.20;93.80;;;;;;5112282;28;20227;-63
2021/04/04 05:45:23;;;;;;;7.27;3.83;;;2.30;93.70;;;;;;5113306;28;20195;-63
2021/04/04 05:48:02;;;;;;;6.20;3.47;;;2.50;93.50;;;;;;5113369;28;20227;-63
2021/04/04 05:50:37;;;;;;;10.37;5.17;;;2.70;93.20;;;;;;5113693;28;20213;-62
2021/04/04 05:53:13;;;;;;;9.07;4.40;;;3.20;93.50;;;;;;5113070;28;20658;-63
2021/04/04 05:55:49;;;;;;;6.40;3.80;;;4.50;92.30;;;;;;5112932;28;20200;-65
2021/04/04 05:58:22;;;;;;;7.70;3.90;;;6.30;89.40;;;;;;5113277;28;20192;-66
2021/04/04 06:00:53;;;;;;;9.77;4.50;;;8.00;81.00;;;;;;5113182;28;20199;-65
2021/04/04 06:03:53;;;;;;;9.70;4.43;;;9.40;74.80;;;;;;5112803;28;20203;-65
2021/04/04 06:06:47;;;;;;;5.53;3.43;;;10.70;69.90;;;;;;5112315;28;20234;-66
2021/04/04 06:09:34;;;;;;;5.63;3.13;;;12.00;65.70;;;;;;5112401;28;20210;-64
2021/04/04 06:12:15;;;;;;;6.67;3.40;;;13.20;61.30;;;;;;5112734;28;20217;-66
2021/04/04 06:14:56;;;;;;;7.07;3.90;;;14.20;58.90;;;;;;5112286;28;20210;-65
2021/04/04 06:17:29;;;;;;;4.93;3.10;;;14.70;56.00;;;;;;5112341;28;20525;-65
2021/04/04 06:20:07;;;;;;;5.77;4.17;;;15.00;55.30;;;;;;5112460;28;20222;-65
2021/04/04 06:22:38;;;;;;;5.17;3.80;;;15.40;54.70;;;;;;5112591;28;20227;-66
2021/04/04 06:25:11;;;;;;;6.50;4.00;;;16.10;53.10;;;;;;5112150;28;20204;-65
2021/04/04 06:27:41;;;;;;;3.53;2.80;;;16.70;52.10;;;;;;5113096;28;20612;-68
2021/04/04 06:30:46;;;;;;;5.67;3.40;;;17.40;50.70;;;;;;5113558;28;20203;-67
2021/04/04 06:33:13;;;;;;;8.90;3.03;;;18.10;49.70;;;;;;5110509;28;20688;-64
2021/04/04 06:35:44;;;;;;;5.90;3.50;;;18.80;48.20;;;;;;5112630;28;20244;-66
2021/04/04 06:38:35;;;;;;;6.45;3.50;;;19.20;46.60;;;;;;5112552;28;20225;-67
2021/04/04 06:41:09;;;;;;;5.85;2.95;;;19.40;46.20;;;;;;5112898;28;20259;-66
2021/04/04 06:43:40;;;;;;;6.88;3.80;;;20.00;46.30;;;;;;5111391;28;20791;-68
2021/04/04 06:46:16;;;;;;;8.98;3.00;;;20.80;45.00;;;;;;5112372;28;20219;-66
2021/04/04 06:49:05;;;;;;;6.88;4.00;;;21.60;43.20;;;;;;5111783;28;20211;-68
2021/04/04 06:51:43;;;;;;;6.38;4.40;;;22.40;42.50;;;;;;5112347;28;20693;-68
2021/04/04 06:54:31;;;;;;;4.45;3.45;;;22.90;41.30;;;;;;5116180;28;20601;-68
2021/04/04 06:57:14;;;;;;;7.13;4.13;;;23.40;40.20;;;;;;5116181;28;20596;-66
2021/04/04 06:59:55;;;;;;;6.40;3.05;;;23.80;39.70;;;;;;5116137;28;20207;-67
2021/04/04 07:02:27;;;;;;;4.60;3.25;;;24.20;38.70;;;;;;5115901;28;20219;-66
2021/04/04 07:04:55;;;;;;;5.78;3.08;;;23.90;38.50;;;;;;5116033;28;20203;-67
2021/04/04 07:07:40;;;;;;;5.38;3.00;;;23.50;38.70;;;;;;5115794;28;20223;-67
2021/04/04 07:10:36;;;;;;;4.47;3.40;;;23.10;39.40;;;;;;5115919;28;20203;-67
2021/04/04 07:13:17;;;;;;;6.60;3.70;;;22.30;40.20;;;;;;5104649;28;20723;-67
2021/04/04 07:15:53;;;;;;;6.88;3.92;;;22.50;40.80;;;;;;5116420;28;20203;-69
2021/04/04 07:18:39;;;;;;;8.70;3.88;;;23.10;39.60;;;;;;5115901;28;20207;-69
2021/04/04 07:21:26;;;;;;;5.30;3.67;;;23.90;39.20;;;;;;5115194;28;20219;-69
2021/04/04 07:24:04;;;;;;;13.70;6.75;;;24.50;37.70;;;;;;5114637;28;20671;-69
2021/04/04 07:26:42;;;;;;;7.40;3.75;;;24.10;38.30;;;;;;5115036;28;20226;-69
2021/04/04 07:29:32;;;;;;;5.88;3.70;;;24.00;39.00;;;;;;5115136;28;20640;-69
2021/04/04 07:32:05;;;;;;;6.53;3.63;;;24.20;38.50;;;;;;5115099;28;20200;-68
2021/04/04 07:34:40;;;;;;;7.05;3.78;;;24.20;39.40;;;;;;5115164;28;20203;-69
2021/04/04 07:37:24;;;;;;;6.60;3.58;;;24.20;39.30;;;;;;5114899;28;20226;-69
2021/04/04 07:40:00;;;;;;;5.72;3.40;;;24.40;39.50;;;;;;5114824;28;20208;-68
2021/04/04 07:42:34;;;;;;;4.57;3.20;;;25.00;38.40;;;;;;5114847;28;20223;-69
2021/04/04 07:45:11;;;;;;;7.07;3.50;;;25.60;37.70;;;;;;5114460;28;20686;-68
2021/04/04 07:47:46;;;;;;;7.60;3.78;;;25.70;38.00;;;;;;5114735;28;20230;-68
2021/04/04 07:50:20;;;;;;;4.47;3.33;;;25.60;38.30;;;;;;5114455;28;20227;-68
2021/04/04 07:52:52;;;;;;;6.72;3.65;;;25.50;37.50;;;;;;5114574;28;20206;-68
2021/04/04 07:55:29;;;;;;;6.68;4.00;;;24.80;38.20;;;;;;5114603;28;20207;-68
2021/04/04 07:58:04;;;;;;;6.63;3.88;;;24.20;39.30;;;;;;5114474;28;20268;-68
2021/04/04 08:00:32;;;;;;;6.32;3.25;;;24.30;38.80;;;;;;5114395;28;20203;-68
2021/04/04 08:03:08;;;;;;;8.93;3.72;;;24.50;38.10;;;;;;5114292;28;20234;-68
2021/04/04 08:05:40;;;;;;;8.00;3.75;;;24.10;38.70;;;;;;5113547;28;20211;-68
2021/04/04 08:08:11;;;;;;;6.22;3.80;;;23.70;39.70;;;;;;5114679;28;20203;-68
2021/04/04 08:10:53;;;;;;;6.95;3.75;;;23.00;41.30;;;;;;5114391;28;20235;-69
2021/04/04 08:13:24;;;;;;;10.05;4.45;;;21.90;41.20;;;;;;5114622;28;20311;-68
2021/04/04 08:15:58;;;;;;;7.85;4.25;;;20.60;42.90;;;;;;5115041;28;20227;-69
2021/04/04 08:18:24;;;;;;;7.63;4.28;;;19.20;44.70;;;;;;5115863;28;20584;-68
2021/04/04 08:20:52;;;;;;;5.72;3.92;;;17.90;46.70;;;;;;5115778;28;20253;-69
2021/04/04 08:23:25;;;;;;;7.57;4.10;;;17.00;48.30;;;;;;5115798;28;20207;-68
2021/04/04 08:25:56;;;;;;;6.00;3.53;;;16.10;49.50;;;;;;5114088;28;20246;-68
2021/04/04 08:28:28;;;;;;;7.50;4.17;;;15.40;50.90;;;;;;5114216;28;20199;-68
2021/04/04 08:30:57;;;;;;;8.77;4.47;;;14.80;51.60;;;;;;5114405;28;20256;-68
2021/04/04 08:33:28;;;;;;;7.77;4.17;;;14.00;52.80;;;;;;5114293;28;20207;-66
2021/04/04 08:35:59;;;;;;;7.87;4.20;;;13.60;54.20;;;;;;5114001;28;20227;-69
2021/04/04 08:38:27;;;;;;;8.33;4.10;;;13.40;55.10;;;;;;5113899;28;20732;-69
2021/04/04 08:40:57;;;;;;;8.50;4.20;;;13.10;55.20;;;;;;5113835;28;20611;-67
2021/04/04 08:43:25;;;;;;;5.50;3.53;;;13.00;55.80;;;;;;5113799;28;20227;-67
2021/04/04 08:45:58;;;;;;;8.17;4.40;;;12.80;55.90;;;;;;5113198;28;20791;-67
2021/04/04 08:48:25;;;;;;;7.67;4.67;;;12.50;56.70;;;;;;5113201;28;20208;-67
2021/04/04 08:50:53;;;;;;;10.43;4.57;;;12.50;56.90;;;;;;5113554;28;20200;-67
2021/04/04 08:53:25;;;;;;;7.27;4.40;;;12.20;57.90;;;;;;5113175;28;20667;-69
2021/04/04 08:58:36;;;;;;;8.23;4.60;;;11.80;59.70;;;;;;5090810;28;20226;-63
2021/04/04 09:01:06;;;;;;;10.37;4.50;;;11.70;60.30;;;;;;5092520;28;20230;-63
2021/04/04 09:03:37;;;;;;;11.63;4.80;;;11.60;60.90;;;;;;5092537;28;20246;-63
2021/04/04 09:06:05;;;;;;;9.27;4.60;;;11.80;61.10;;;;;;5092923;28;20234;-64
2021/04/04 09:08:33;;;;;;;11.13;4.63;;;12.00;60.80;;;;;;5092475;28;20204;-63
2021/04/04 09:11:00;;;;;;;7.73;4.50;;;12.10;59.90;;;;;;5092846;28;20219;-64
2021/04/04 09:13:32;;;;;;;9.00;3.90;;;12.10;59.50;;;;;;5092406;28;20671;-64
2021/04/04 09:16:01;;;;;;;6.97;4.20;;;12.10;59.90;;;;;;5091298;28;20215;-63
2021/04/04 09:18:30;;;;;;;7.87;4.23;;;12.20;59.60;;;;;;5092481;28;20218;-64
2021/04/04 09:21:04;;;;;;;10.73;5.03;;;12.20;59.50;;;;;;5092505;28;20204;-63
2021/04/04 09:23:32;;;;;;;12.70;4.33;;;12.30;60.00;;;;;;5092579;28;20248;-63
2021/04/04 09:26:02;;;;;;;9.33;5.50;;;12.40;60.50;;;;;;5092469;28;20208;-61
2021/04/04 09:28:32;;;;;;;8.53;4.60;;;12.50;60.50;;;;;;5092932;28;20207;-62
2021/04/04 09:31:00;;;;;;;6.90;3.73;;;12.60;60.30;;;;;;5092577;28;20200;-64
2021/04/04 09:33:28;;;;;;;7.43;3.87;;;12.80;59.60;;;;;;5091903;28;20663;-63
2021/04/04 09:35:56;;;;;;;8.73;4.40;;;12.90;59.10;;;;;;5091695;28;20625;-63
2021/04/04 09:38:29;;;;;;;9.90;4.27;;;12.90;58.50;;;;;;5091969;28;20212;-63
2021/04/04 09:40:56;;;;;;;6.83;3.43;;;13.00;58.20;;;;;;5091900;28;20188;-63
2021/04/04 09:43:24;;;;;;;4.93;3.60;;;13.00;57.70;;;;;;5091700;28;20200;-62
2021/04/04 09:46:01;;;;;;;6.40;3.80;;;12.90;57.70;;;;;;5091797;28;20216;-63
2021/04/04 09:48:27;;;;;;;7.37;3.20;;;12.90;57.80;;;;;;5091716;28;20737;-64
2021/04/04 09:51:06;;;;;;;7.67;3.87;;;13.10;56.80;;;;;;5091601;28;20208;-63
2021/04/04 09:53:37;;;;;;;10.20;4.40;;;13.20;57.20;;;;;;5091705;28;20659;-64
2021/04/04 09:56:07;;;;;;;10.77;4.50;;;13.20;58.40;;;;;;5091302;28;20250;-63
2021/04/04 09:58:34;;;;;;;7.07;3.73;;;13.40;58.30;;;;;;5091562;28;20265;-61
2021/04/04 10:01:02;;;;;;;6.93;3.60;;;13.60;56.20;;;;;;5091997;28;20209;-63
2021/04/04 10:03:28;;;;;;;6.07;3.40;;;13.70;56.10;;;;;;5091502;28;20242;-62
2021/04/04 10:05:54;;;;;;;9.13;3.60;;;13.80;55.40;;;;;;5091705;28;20563;-63
2021/04/04 10:08:22;;;;;;;6.63;3.57;;;14.00;55.00;;;;;;5091599;28;20207;-62
2021/04/04 10:10:49;;;;;;;5.90;3.03;;;14.30;54.50;;;;;;5091427;28;20200;-62
2021/04/04 10:13:16;;;;;;;7.30;3.47;;;14.50;53.30;;;;;;5091514;28;20248;-63
2021/04/04 10:15:45;;;;;;;8.03;4.90;;;14.70;53.40;;;;;;5090842;28;20204;-62
2021/04/04 10:18:13;;;;;;;6.27;3.17;;;14.90;52.30;;;;;;5090846;28;20231;-62
2021/04/04 10:20:41;;;;;;;4.37;2.50;;;15.00;51.10;;;;;;5091202;28;20261;-64
2021/04/04 10:23:09;;;;;;;5.07;3.00;;;15.10;50.00;;;;;;5090846;28;20224;-62
2021/04/04 10:25:36;;;;;;;6.37;3.03;;;15.30;50.20;;;;;;5090732;28;20699;-61
2021/04/04 10:28:05;;;;;;;5.77;2.70;;;15.50;48.00;;;;;;5090789;28;20221;-61
2021/04/04 10:30:34;;;;;;;6.27;2.60;;;15.70;48.80;;;;;;5091071;28;20261;-62
2021/04/04 10:33:21;;;;;;;6.13;2.80;;;15.80;49.30;;;;;;5091381;28;20207;-62
2021/04/04 10:35:48;;;;;;;4.47;2.70;;;15.80;48.80;;;;;;5091290;28;20207;-61
2021/04/04 10:38:18;;;;;;;7.63;3.00;;;16.00;47.90;;;;;;5090819;28;20235;-62
2021/04/04 10:40:47;;;;;;;5.17;2.77;;;16.30;47.40;;;;;;5090848;28;20204;-62
2021/04/04 10:43:15;;;;;;;5.27;3.10;;;16.50;47.00;;;;;;5090919;28;20447;-63
2021/04/04 10:46:00;;;;;;;5.77;3.27;;;16.60;45.70;;;;;;5090404;28;20204;-62
2021/04/04 10:48:29;;;;;;;6.43;2.90;;;16.80;45.40;;;;;;5090556;28;20204;-62
2021/04/04 10:50:56;;;;;;;5.10;2.60;;;16.90;45.50;;;;;;5090852;28;20208;-62
2021/04/04 10:53:22;;;;;;;6.40;3.50;;;16.70;45.70;;;;;;5090609;28;20196;-62
2021/04/04 10:55:49;;;;;;;5.50;2.40;;;16.70;45.70;;;;;;5090595;28;20208;-61
2021/04/04 10:58:20;;;;;;;5.47;2.83;;;17.00;45.60;;;;;;5090249;28;20244;-63
2021/04/04 11:00:47;;;;;;;5.90;2.90;;;17.20;45.30;;;;;;5090635;28;20215;-62
2021/04/04 11:03:13;;;;;;;4.40;2.67;;;17.50;45.00;;;;;;5090616;28;20277;-62
2021/04/04 11:05:40;;;;;;;5.53;2.87;;;17.60;45.60;;;;;;5090454;28;20667;-62
2021/04/04 11:08:08;;;;;;;7.33;3.27;;;17.60;45.10;;;;;;5090154;28;20231;-62
2021/04/04 11:10:34;;;;;;;8.60;3.40;;;17.90;44.80;;;;;;5090273;28;20668;-62
2021/04/04 11:13:02;;;;;;;5.03;3.53;;;18.20;44.50;;;;;;5091054;28;20204;-62
2021/04/04 11:15:30;;;;;;;4.10;2.63;;;18.30;44.30;;;;;;5090736;28;20211;-62
2021/04/04 11:17:58;;;;;;;6.13;3.10;;;18.30;44.30;;;;;;5090468;28;20232;-62
2021/04/04 11:20:25;;;;;;;5.03;2.83;;;18.00;44.00;;;;;;5090709;28;20200;-62
2021/04/04 11:22:53;;;;;;;6.90;3.00;;;17.40;44.70;;;;;;5090374;28;20220;-62
2021/04/04 11:25:27;;;;;;;5.13;2.67;;;16.90;46.60;;;;;;5090464;28;20615;-61
2021/04/04 11:27:53;;;;;;;5.83;3.00;;;16.60;46.70;;;;;;5090528;28;20225;-62
2021/04/04 11:30:38;;;;;;;4.67;2.83;;;16.70;47.70;;;;;;5090568;28;20215;-62
2021/04/04 11:33:37;;;;;;;4.47;2.90;;;16.90;46.60;;;;;;5090236;28;20201;-62
2021/04/04 11:36:09;;;;;;;5.40;3.43;;;16.70;46.90;;;;;;5090431;28;20223;-62
2021/04/04 11:38:39;;;;;;;6.60;2.90;;;16.60;46.10;;;;;;5090308;28;20200;-62
2021/04/04 11:41:21;;;;;;;7.07;3.47;;;16.60;45.70;;;;;;5093570;28;20200;-62
2021/04/04 11:43:49;;;;;;;4.10;2.60;;;16.70;46.00;;;;;;5094242;28;20204;-62
2021/04/04 11:46:48;;;;;;;5.43;2.93;;;16.40;45.60;;;;;;5093949;28;20258;-62
2021/04/04 11:49:37;;;;;;;4.60;2.57;;;16.20;46.00;;;;;;5093767;28;20208;-62
2021/04/04 11:52:37;;;;;;;4.47;2.73;;;15.80;45.50;;;;;;5093859;28;20205;-62
2021/04/04 11:55:06;;;;;;;4.70;2.63;;;15.90;45.90;;;;;;5091340;28;20201;-63
2021/04/04 11:57:34;;;;;;;5.87;2.67;;;16.00;44.70;;;;;;5093689;28;20406;-62
2021/04/04 12:00:04;;;;;;;4.03;2.60;;;15.90;44.80;;;;;;5093596;28;20212;-62
2021/04/04 12:02:31;;;;;;;5.57;2.97;;;15.80;45.00;;;;;;5094100;28;20224;-62
2021/04/04 12:05:03;;;;;;;6.80;2.73;;;15.70;45.40;;;;;;5093728;28;20204;-63
2021/04/04 12:07:30;;;;;;;5.53;3.10;;;15.80;45.50;;;;;;5093834;28;20227;-63
2021/04/04 12:09:56;;;;;;;4.07;3.07;;;15.80;45.50;;;;;;5093822;28;20616;-63
2021/04/04 12:12:23;;;;;;;4.57;2.67;;;15.80;45.30;;;;;;5093986;28;20254;-63
2021/04/04 12:14:52;;;;;;;5.97;2.87;;;15.80;45.80;;;;;;5093369;28;20246;-63
2021/04/04 12:17:20;;;;;;;8.30;3.70;;;15.90;45.60;;;;;;5093362;28;20227;-62
2021/04/04 12:19:47;;;;;;;7.87;3.50;;;15.90;45.60;;;;;;5093357;28;20216;-63
2021/04/04 12:22:14;;;;;;;8.87;5.07;;;16.20;45.20;;;;;;5093301;28;20220;-63
2021/04/04 12:24:46;;;;;;;6.47;3.07;;;16.50;44.90;;;;;;5093139;28;20211;-61
2021/04/04 12:27:14;;;;;;;5.87;2.40;;;16.90;44.60;;;;;;5093172;28;20224;-62
2021/04/04 12:29:43;;;;;;;4.63;2.70;;;17.30;44.10;;;;;;5092697;28;20671;-62
2021/04/04 12:32:10;;;;;;;5.57;2.73;;;17.70;44.00;;;;;;5093279;28;20254;-62
2021/04/04 12:34:40;;;;;;;4.97;2.63;;;17.90;43.60;;;;;;5093014;28;20204;-62
2021/04/04 12:37:10;;;;;;;5.30;2.97;;;18.00;43.50;;;;;;5092832;28;20655;-62
2021/04/04 12:39:38;;;;;;;5.83;3.10;;;17.90;43.90;;;;;;5093077;28;20235;-61
2021/04/04 12:42:07;;;;;;;5.33;2.40;;;17.60;44.10;;;;;;5092877;28;20337;-62
2021/04/04 12:44:34;;;;;;;7.00;2.90;;;17.30;44.00;;;;;;5092455;28;20204;-62
2021/04/04 12:47:08;;;;;;;4.83;2.80;;;16.90;44.60;;;;;;5092730;28;20232;-63
2021/04/04 12:49:35;;;;;;;7.83;3.07;;;16.60;44.80;;;;;;5092601;28;20216;-63
2021/04/04 12:52:02;;;;;;;4.83;2.80;;;16.60;44.80;;;;;;5092330;28;20207;-62
2021/04/04 12:54:28;;;;;;;4.67;2.60;;;16.60;44.80;;;;;;5092383;28;20671;-62
2021/04/04 12:56:55;;;;;;;6.13;2.90;;;16.80;44.80;;;;;;5092787;28;20231;-62
2021/04/04 12:59:21;;;;;;;5.17;3.03;;;17.00;44.10;;;;;;5092633;28;20481;-63
2021/04/04 13:01:48;;;;;;;6.53;2.83;;;17.10;43.90;;;;;;5092530;28;20216;-62
2021/04/04 13:04:20;;;;;;;7.20;3.00;;;17.10;43.50;;;;;;5092250;28;20706;-62
2021/04/04 13:06:47;;;;;;;4.43;2.80;;;17.20;43.20;;;;;;5092229;28;20234;-62
2021/04/04 13:09:13;;;;;;;7.27;3.20;;;17.30;43.50;;;;;;5092173;28;20256;-63
2021/04/04 13:11:41;;;;;;;5.80;3.10;;;17.40;45.00;;;;;;5092134;28;20200;-63